Terminal Aerodrome Forecast
Issued by NWS Quad Cities IA IL

Home | Current Version | Previous Version | Text Only | Print | Product List | Glossary On
Versions: 1 2 3 4 5 6 7 8 9 10 11 12 13 14 15 16 17 18 19 20 21 22 23 24 25 26 27
000
FTUS43 KDVN 071144
TAFMLI
TAF
KMLI 071144Z 0712/0812 22011KT P6SM SCT110
     FM071800 28014G22KT P6SM SCT050
     FM080300 26012G18KT 5SM BR VCSH OVC025
     FM080500 27015G23KT 3SM -SHSN BR SCT007 OVC012
     FM080800 29017G26KT 5SM -SHSN BR SCT009 OVC018=

USA.gov is the U.S. government's official web portal to all federal, state and local government web resources and services.